Time;durP1;ratioP1;P1;durP2;ratioP2;P2;SDS_P1;SDS_P2;PMS_P1;PMS_P2;Temp;Humidity;BMP_temperature;BMP_pressure;BME280_temperature;BME280_humidity;BME280_pressure;Samples;Min_cycle;Max_cycle;Signal;HPM_P1;HPM_P2
2023/05/25 00:01:12;;;;;;;3.67;2.10;;;8.30;99.90;;;;;;5013765;28;20481;-68
2023/05/25 00:03:39;;;;;;;3.97;2.30;;;8.30;99.90;;;;;;5013627;28;20052;-68
2023/05/25 00:06:06;;;;;;;4.25;2.42;;;8.30;99.90;;;;;;5012736;28;20065;-68
2023/05/25 00:08:31;;;;;;;4.65;2.20;;;8.20;99.90;;;;;;5013675;28;20081;-68
2023/05/25 00:10:58;;;;;;;5.88;2.35;;;8.20;99.90;;;;;;5013603;28;20046;-68
2023/05/25 00:13:23;;;;;;;6.97;2.30;;;8.10;99.90;;;;;;5013608;28;20042;-69
2023/05/25 00:15:49;;;;;;;3.70;2.00;;;8.00;99.90;;;;;;5013645;28;20050;-68
2023/05/25 00:18:15;;;;;;;5.78;2.47;;;8.00;99.90;;;;;;5013850;28;20374;-68
2023/05/25 00:20:43;;;;;;;6.70;2.70;;;8.00;99.90;;;;;;5014331;28;20046;-68
2023/05/25 00:23:09;;;;;;;6.40;2.90;;;7.90;99.90;;;;;;5013539;28;20046;-68
2023/05/25 00:25:35;;;;;;;6.57;2.80;;;8.00;99.90;;;;;;5013535;28;20076;-69
2023/05/25 00:28:03;;;;;;;4.00;2.40;;;8.00;99.90;;;;;;5013487;28;20052;-68
2023/05/25 00:30:29;;;;;;;3.10;2.10;;;8.10;99.90;;;;;;5013687;28;20112;-68
2023/05/25 00:32:54;;;;;;;6.10;2.60;;;8.10;99.90;;;;;;5017299;28;20038;-68
2023/05/25 00:35:20;;;;;;;7.03;2.58;;;8.00;99.90;;;;;;5017806;28;20061;-68
2023/05/25 00:37:46;;;;;;;6.40;3.15;;;8.00;99.90;;;;;;5016079;28;20053;-68
2023/05/25 00:40:15;;;;;;;7.65;3.63;;;8.00;99.90;;;;;;5015818;28;20046;-68
2023/05/25 00:42:42;;;;;;;6.20;3.15;;;8.10;99.90;;;;;;5017016;28;20046;-68
2023/05/25 00:45:08;;;;;;;7.47;3.45;;;8.10;99.90;;;;;;5016907;28;20096;-68
2023/05/25 00:47:35;;;;;;;10.88;3.88;;;8.30;99.90;;;;;;5016744;28;20053;-68
2023/05/25 00:50:01;;;;;;;7.38;3.30;;;8.40;99.90;;;;;;5016948;28;20414;-69
2023/05/25 00:52:27;;;;;;;7.65;3.50;;;8.50;99.90;;;;;;5016937;28;20120;-69
2023/05/25 00:55:31;;;;;;;9.30;4.10;;;8.60;99.90;;;;;;5016866;28;20496;-69
2023/05/25 00:58:00;;;;;;;9.95;3.97;;;8.70;99.90;;;;;;5016812;28;20060;-68
2023/05/25 01:00:29;;;;;;;8.05;3.50;;;8.70;99.90;;;;;;5016756;28;20046;-69
2023/05/25 01:02:56;;;;;;;9.57;3.90;;;8.80;99.90;;;;;;5016636;28;20073;-68
2023/05/25 01:05:24;;;;;;;9.85;3.50;;;8.90;99.90;;;;;;5017432;28;20061;-69
2023/05/25 01:07:53;;;;;;;9.68;3.40;;;8.90;99.90;;;;;;5016598;28;20046;-69
2023/05/25 01:10:23;;;;;;;8.82;3.58;;;8.90;99.90;;;;;;5016236;28;20487;-69
2023/05/25 01:12:52;;;;;;;8.00;3.60;;;8.90;99.90;;;;;;5017115;28;20045;-69
2023/05/25 01:15:19;;;;;;;7.70;3.00;;;8.90;99.90;;;;;;5016570;28;20395;-69
2023/05/25 01:17:47;;;;;;;8.55;2.92;;;8.80;99.90;;;;;;5016551;28;20056;-68
2023/05/25 01:20:12;;;;;;;8.63;2.63;;;8.60;99.90;;;;;;4999894;28;20050;-68
2023/05/25 01:25:52;;;;;;;6.90;2.78;;;8.00;99.90;;;;;;5016855;28;20061;-69
2023/05/25 01:28:24;;;;;;;5.65;2.63;;;7.80;99.90;;;;;;5016286;28;20118;-69
2023/05/25 01:30:51;;;;;;;4.53;2.50;;;7.70;99.90;;;;;;5016254;28;20049;-69
2023/05/25 01:33:20;;;;;;;6.75;2.50;;;7.80;99.90;;;;;;5016711;28;20045;-69
2023/05/25 01:35:47;;;;;;;6.30;2.45;;;7.70;99.90;;;;;;5015961;28;20060;-68
2023/05/25 01:38:13;;;;;;;4.22;2.60;;;7.70;99.90;;;;;;5014957;28;20056;-68
2023/05/25 01:40:39;;;;;;;6.13;2.88;;;7.70;99.90;;;;;;5015637;28;20094;-69
2023/05/25 01:43:05;;;;;;;7.15;3.00;;;7.80;99.90;;;;;;5015252;28;20118;-69
2023/05/25 01:45:31;;;;;;;5.07;2.83;;;7.70;99.90;;;;;;5016483;28;20050;-69
2023/05/25 01:48:06;;;;;;;5.22;2.60;;;7.70;99.90;;;;;;5016107;28;20046;-69
2023/05/25 01:50:53;;;;;;;5.43;3.20;;;7.60;99.90;;;;;;5016635;28;20391;-69
2023/05/25 01:53:23;;;;;;;6.80;2.97;;;7.50;99.90;;;;;;5016368;28;20050;-69
2023/05/25 01:55:56;;;;;;;5.53;2.63;;;7.50;99.90;;;;;;5015748;28;20050;-69
2023/05/25 01:58:24;;;;;;;5.32;2.60;;;7.50;99.90;;;;;;5015754;28;20108;-68
2023/05/25 02:00:51;;;;;;;10.60;3.17;;;7.40;99.90;;;;;;5015647;28;20407;-69
2023/05/25 02:03:18;;;;;;;7.97;2.83;;;7.40;99.90;;;;;;5015537;28;20081;-69
2023/05/25 02:05:45;;;;;;;7.53;3.05;;;7.30;99.90;;;;;;5015530;28;20058;-69
2023/05/25 02:08:11;;;;;;;6.20;2.90;;;7.30;99.90;;;;;;5014522;28;20125;-68
2023/05/25 02:10:37;;;;;;;5.43;2.60;;;7.20;99.90;;;;;;5015420;28;20133;-69
2023/05/25 02:13:02;;;;;;;6.57;2.60;;;7.20;99.90;;;;;;5015406;28;20037;-68
2023/05/25 02:15:31;;;;;;;6.30;2.72;;;7.20;99.90;;;;;;5015116;28;20100;-68
2023/05/25 02:17:58;;;;;;;6.32;2.70;;;7.10;99.90;;;;;;5015255;28;20050;-68
2023/05/25 02:20:25;;;;;;;6.85;3.33;;;7.10;99.90;;;;;;5015254;28;20054;-68
2023/05/25 02:22:51;;;;;;;5.47;2.85;;;7.00;99.90;;;;;;5013806;28;20111;-69
2023/05/25 02:25:16;;;;;;;6.28;3.15;;;7.00;99.90;;;;;;5015760;28;20050;-69
2023/05/25 02:27:43;;;;;;;6.93;3.30;;;7.00;99.90;;;;;;5015625;28;20057;-69
2023/05/25 02:30:09;;;;;;;6.30;3.60;;;7.10;99.90;;;;;;5015149;28;20052;-68
2023/05/25 02:32:35;;;;;;;8.45;3.00;;;7.10;99.90;;;;;;5015075;28;20085;-69
2023/05/25 02:35:01;;;;;;;8.43;3.42;;;7.10;99.90;;;;;;5015071;28;20085;-68
2023/05/25 02:37:27;;;;;;;7.05;3.42;;;7.10;99.90;;;;;;5013327;28;20159;-69
2023/05/25 02:39:52;;;;;;;9.05;3.33;;;7.00;99.90;;;;;;5014889;28;20046;-69
2023/05/25 02:42:18;;;;;;;5.93;3.33;;;7.00;99.90;;;;;;4998334;28;20363;-69
2023/05/25 02:44:47;;;;;;;6.72;3.38;;;7.00;99.90;;;;;;5014792;28;20054;-69
2023/05/25 02:47:17;;;;;;;5.30;2.88;;;6.90;99.90;;;;;;5015384;28;20132;-69
2023/05/25 02:49:43;;;;;;;8.02;3.03;;;6.90;99.90;;;;;;5014704;28;20478;-69
2023/05/25 02:52:09;;;;;;;7.18;2.95;;;6.90;99.90;;;;;;5015220;28;20490;-69
2023/05/25 02:54:35;;;;;;;8.02;3.45;;;6.90;99.90;;;;;;5014568;28;20089;-69
2023/05/25 02:57:02;;;;;;;7.13;3.28;;;6.90;99.90;;;;;;5014902;28;20089;-69
2023/05/25 02:59:28;;;;;;;6.18;2.78;;;6.80;99.90;;;;;;5015183;28;20053;-69
2023/05/25 03:01:54;;;;;;;6.05;3.00;;;6.90;99.90;;;;;;5014521;28;20045;-69
2023/05/25 03:04:20;;;;;;;6.20;3.42;;;6.90;99.90;;;;;;5014442;28;20512;-69
2023/05/25 03:06:46;;;;;;;5.13;2.60;;;7.00;99.90;;;;;;5014480;28;20050;-69
2023/05/25 03:09:12;;;;;;;5.20;2.60;;;7.00;99.90;;;;;;5014931;28;20426;-69
2023/05/25 03:11:38;;;;;;;5.78;3.03;;;7.00;99.90;;;;;;5014804;28;20052;-69
2023/05/25 03:14:04;;;;;;;5.70;2.42;;;6.90;99.90;;;;;;5014617;28;20038;-69
2023/05/25 03:16:34;;;;;;;7.20;3.10;;;6.90;99.90;;;;;;5012821;28;20529;-69
2023/05/25 03:19:07;;;;;;;6.57;3.25;;;7.00;99.90;;;;;;5014756;28;20558;-69
2023/05/25 03:21:32;;;;;;;10.07;3.67;;;6.90;99.90;;;;;;5014067;28;20053;-69
2023/05/25 03:23:58;;;;;;;5.90;3.20;;;6.90;99.90;;;;;;5013923;28;20042;-69
2023/05/25 03:26:27;;;;;;;8.23;3.30;;;6.90;99.90;;;;;;5013681;28;20065;-69
2023/05/25 03:28:53;;;;;;;5.18;3.10;;;6.90;99.90;;;;;;5014349;28;20054;-69
2023/05/25 03:31:19;;;;;;;6.38;3.13;;;6.90;99.90;;;;;;5014435;28;20072;-69
2023/05/25 03:33:45;;;;;;;7.05;2.85;;;6.90;99.90;;;;;;5013885;28;20073;-69
2023/05/25 03:36:11;;;;;;;6.43;2.92;;;6.90;99.90;;;;;;5015596;28;20060;-69
2023/05/25 03:38:37;;;;;;;7.07;2.90;;;6.80;99.90;;;;;;5016565;28;20537;-69
2023/05/25 03:41:03;;;;;;;7.95;2.90;;;6.70;99.90;;;;;;5016409;28;20041;-69
2023/05/25 03:43:28;;;;;;;3.55;2.10;;;6.70;99.90;;;;;;5014238;28;20038;-69
2023/05/25 03:45:54;;;;;;;6.80;2.60;;;6.70;99.90;;;;;;5014048;28;20491;-69
2023/05/25 03:48:20;;;;;;;9.52;2.85;;;6.60;99.90;;;;;;5013878;28;20053;-69
2023/05/25 03:50:45;;;;;;;7.63;3.20;;;6.50;99.90;;;;;;5014149;28;20046;-69
2023/05/25 03:53:11;;;;;;;6.28;2.92;;;6.40;99.90;;;;;;5014347;28;20124;-69
2023/05/25 03:55:37;;;;;;;7.88;3.63;;;6.50;99.90;;;;;;5014589;28;20363;-69
2023/05/25 03:58:03;;;;;;;7.75;3.53;;;6.40;99.90;;;;;;4996496;28;20092;-69
2023/05/25 04:00:28;;;;;;;8.25;3.38;;;6.40;99.90;;;;;;5014073;28;20053;-69
2023/05/25 04:02:55;;;;;;;7.38;3.30;;;6.40;99.90;;;;;;5013722;28;20514;-69
2023/05/25 04:05:21;;;;;;;8.15;3.35;;;6.50;99.90;;;;;;5014396;28;20054;-69
2023/05/25 04:07:47;;;;;;;6.47;3.50;;;6.50;99.90;;;;;;5017789;28;20401;-69
2023/05/25 04:10:12;;;;;;;9.90;3.63;;;6.70;99.90;;;;;;5018478;28;20049;-69
2023/05/25 04:12:38;;;;;;;6.88;3.53;;;6.70;99.90;;;;;;5018183;28;20034;-69
2023/05/25 04:15:07;;;;;;;6.47;3.63;;;6.80;99.90;;;;;;5018261;28;20390;-69
2023/05/25 04:17:34;;;;;;;9.38;4.18;;;6.90;99.90;;;;;;5017575;28;20402;-69
2023/05/25 04:20:01;;;;;;;9.20;4.13;;;6.90;99.90;;;;;;5017554;28;20050;-69
2023/05/25 04:22:27;;;;;;;10.15;4.03;;;7.10;99.90;;;;;;5017430;28;20064;-69
2023/05/25 04:24:52;;;;;;;8.38;4.25;;;7.20;99.90;;;;;;5017453;28;20042;-69
2023/05/25 04:27:19;;;;;;;8.77;3.83;;;7.30;99.90;;;;;;5017405;28;20088;-69
2023/05/25 04:29:45;;;;;;;9.20;3.75;;;7.50;99.90;;;;;;5017830;28;20427;-69
2023/05/25 04:32:16;;;;;;;8.95;4.47;;;7.70;99.90;;;;;;5017307;28;20060;-69
2023/05/25 04:34:43;;;;;;;11.07;5.13;;;7.80;99.90;;;;;;5017618;28;20046;-69
2023/05/25 04:37:09;;;;;;;10.43;4.35;;;8.00;99.90;;;;;;5017688;28;20058;-69
2023/05/25 04:39:35;;;;;;;8.57;4.25;;;8.10;99.90;;;;;;5016166;28;20064;-69
2023/05/25 04:42:04;;;;;;;11.43;4.70;;;8.30;99.90;;;;;;5016749;28;20132;-69
2023/05/25 04:44:33;;;;;;;9.57;4.47;;;8.50;99.90;;;;;;5016643;28;20062;-69
2023/05/25 04:47:00;;;;;;;8.70;4.45;;;8.70;99.90;;;;;;5017027;28;20042;-69
2023/05/25 04:49:26;;;;;;;9.23;5.20;;;8.80;99.90;;;;;;5016824;28;20054;-69
2023/05/25 04:51:52;;;;;;;9.48;4.40;;;9.00;99.90;;;;;;5016956;28;20042;-69
2023/05/25 04:54:18;;;;;;;9.52;4.82;;;9.10;99.90;;;;;;5015621;28;20052;-69
2023/05/25 04:56:44;;;;;;;8.45;4.57;;;9.20;99.90;;;;;;5016832;28;20038;-69
2023/05/25 04:59:10;;;;;;;9.95;5.00;;;9.30;99.90;;;;;;5017351;28;20218;-69
2023/05/25 05:01:39;;;;;;;12.02;4.97;;;9.40;99.90;;;;;;5016374;28;20406;-69
2023/05/25 05:04:08;;;;;;;13.35;5.78;;;9.50;99.90;;;;;;5015455;28;20402;-69
2023/05/25 05:06:35;;;;;;;10.38;5.30;;;9.60;99.90;;;;;;5016952;28;20426;-68
2023/05/25 05:09:01;;;;;;;9.30;5.32;;;9.70;99.90;;;;;;5016634;28;20050;-69
2023/05/25 05:11:27;;;;;;;8.52;4.40;;;9.70;99.90;;;;;;5016591;28;20046;-69
2023/05/25 05:13:56;;;;;;;10.88;5.07;;;9.80;99.90;;;;;;5017276;28;20108;-69
2023/05/25 05:16:22;;;;;;;9.35;5.07;;;9.90;99.90;;;;;;5016695;28;20443;-69
2023/05/25 05:18:48;;;;;;;11.70;5.40;;;10.00;99.90;;;;;;5015271;28;20049;-69
2023/05/25 05:21:13;;;;;;;12.18;5.13;;;10.00;99.90;;;;;;5016245;28;20376;-69
2023/05/25 05:23:42;;;;;;;8.20;4.60;;;10.10;99.90;;;;;;5016177;28;20042;-69
2023/05/25 05:26:10;;;;;;;10.50;5.30;;;10.20;99.90;;;;;;5016315;28;20129;-69
2023/05/25 05:28:36;;;;;;;11.52;5.72;;;10.30;99.90;;;;;;5016294;28;20410;-69
2023/05/25 05:31:02;;;;;;;7.90;4.65;;;10.30;99.90;;;;;;5016292;28;20124;-69
2023/05/25 05:33:27;;;;;;;9.70;4.82;;;10.40;99.90;;;;;;5015523;28;20084;-69
2023/05/25 05:35:53;;;;;;;9.52;4.65;;;10.50;99.90;;;;;;5016053;28;20097;-69
2023/05/25 05:38:20;;;;;;;8.52;4.78;;;10.60;99.90;;;;;;5016600;28;20097;-70
2023/05/25 05:40:45;;;;;;;12.40;4.72;;;10.60;99.90;;;;;;5015990;28;20050;-70
2023/05/25 05:43:12;;;;;;;9.32;4.85;;;10.70;99.90;;;;;;5016158;28;20093;-69
2023/05/25 05:45:38;;;;;;;11.73;4.80;;;10.80;99.90;;;;;;5016205;28;20108;-69
2023/05/25 05:48:08;;;;;;;11.43;5.05;;;10.90;99.90;;;;;;5016507;28;20045;-69
2023/05/25 05:50:35;;;;;;;11.00;5.45;;;11.00;99.90;;;;;;5015867;28;20050;-69
2023/05/25 05:53:01;;;;;;;8.93;5.00;;;11.10;99.90;;;;;;5015838;28;20100;-69
2023/05/25 05:55:27;;;;;;;13.90;4.93;;;11.20;99.90;;;;;;5016354;28;20042;-69
2023/05/25 05:57:52;;;;;;;12.07;5.25;;;11.30;99.90;;;;;;5015733;28;20057;-69
2023/05/25 06:00:18;;;;;;;11.10;5.47;;;11.40;99.90;;;;;;5016177;28;20042;-69
2023/05/25 06:02:44;;;;;;;13.02;5.70;;;11.40;99.90;;;;;;5015846;28;20191;-69
2023/05/25 06:05:10;;;;;;;12.05;5.10;;;11.50;99.90;;;;;;5015622;28;20491;-69
2023/05/25 06:07:37;;;;;;;11.95;4.97;;;11.60;99.90;;;;;;5015575;28;20050;-69
2023/05/25 06:10:06;;;;;;;9.75;4.75;;;11.80;99.90;;;;;;5016109;28;20058;-69
2023/05/25 06:12:32;;;;;;;10.10;4.78;;;11.90;99.90;;;;;;5015309;28;20050;-70
2023/05/25 06:14:57;;;;;;;9.38;4.90;;;12.00;99.90;;;;;;5016102;28;20053;-70
2023/05/25 06:17:23;;;;;;;12.52;5.30;;;12.10;99.90;;;;;;5015835;28;20391;-63
2023/05/25 06:19:49;;;;;;;9.18;4.97;;;12.20;99.90;;;;;;5015867;28;20046;-63
2023/05/25 06:22:15;;;;;;;7.68;3.63;;;12.20;99.90;;;;;;5015281;28;20038;-62
2023/05/25 06:24:41;;;;;;;7.50;3.55;;;12.30;99.90;;;;;;5014129;28;20052;-62
2023/05/25 06:27:07;;;;;;;8.60;3.75;;;12.40;99.90;;;;;;5015215;28;20135;-62
2023/05/25 06:29:33;;;;;;;7.63;4.00;;;12.40;99.90;;;;;;5014699;28;20099;-62
2023/05/25 06:31:58;;;;;;;9.68;4.25;;;12.50;99.90;;;;;;5015059;28;20045;-63
2023/05/25 06:34:24;;;;;;;7.45;3.50;;;12.60;99.90;;;;;;5015641;28;20438;-63
2023/05/25 06:36:50;;;;;;;8.18;3.55;;;12.70;99.90;;;;;;5013482;28;20058;-62
2023/05/25 06:39:16;;;;;;;8.20;3.65;;;12.80;99.90;;;;;;5015194;28;20052;-62
2023/05/25 06:41:42;;;;;;;8.70;3.90;;;12.90;99.90;;;;;;5014837;28;20045;-62
2023/05/25 06:44:08;;;;;;;7.85;3.17;;;12.90;99.90;;;;;;5014813;28;20038;-63
2023/05/25 06:46:33;;;;;;;5.70;2.97;;;12.90;99.90;;;;;;5015321;28;20459;-63
2023/05/25 06:49:00;;;;;;;7.63;3.10;;;13.00;99.90;;;;;;5014779;28;20514;-62
2023/05/25 06:51:26;;;;;;;7.05;3.17;;;13.10;99.90;;;;;;5014686;28;20099;-62
2023/05/25 06:53:55;;;;;;;8.35;3.28;;;13.20;99.90;;;;;;5014353;28;20494;-62
2023/05/25 06:56:21;;;;;;;7.90;3.88;;;13.30;99.90;;;;;;5014655;28;20413;-62
2023/05/25 06:58:50;;;;;;;7.75;3.15;;;13.50;99.90;;;;;;5014635;28;20058;-62
2023/05/25 07:01:16;;;;;;;7.88;3.00;;;13.50;99.90;;;;;;5014589;28;20045;-63
2023/05/25 07:03:42;;;;;;;8.15;3.45;;;13.50;99.90;;;;;;5014746;28;20122;-62
2023/05/25 07:06:10;;;;;;;9.43;3.53;;;13.50;99.90;;;;;;5014160;28;20042;-62
2023/05/25 07:08:36;;;;;;;9.10;3.20;;;13.50;99.90;;;;;;5014416;28;20545;-64
2023/05/25 07:11:01;;;;;;;5.00;2.85;;;13.60;99.90;;;;;;5014286;28;20050;-63
2023/05/25 07:13:27;;;;;;;9.07;2.80;;;13.70;99.90;;;;;;5014202;28;20045;-63
2023/05/25 07:15:53;;;;;;;4.93;2.45;;;13.80;99.90;;;;;;5013375;28;20042;-64
2023/05/25 07:18:18;;;;;;;6.07;2.30;;;13.80;99.90;;;;;;5014233;28;20049;-64
2023/05/25 07:20:45;;;;;;;7.43;3.10;;;13.90;99.90;;;;;;5014788;28;20046;-63
2023/05/25 07:23:11;;;;;;;7.82;3.30;;;13.90;99.90;;;;;;5014814;28;20042;-63
2023/05/25 07:25:38;;;;;;;5.75;3.00;;;13.90;99.90;;;;;;5012941;28;20092;-63
2023/05/25 07:28:04;;;;;;;6.78;2.70;;;14.00;99.90;;;;;;5013794;28;20491;-63
2023/05/25 07:30:29;;;;;;;7.75;2.70;;;14.00;99.90;;;;;;5013945;28;20038;-63
2023/05/25 07:32:56;;;;;;;6.28;2.95;;;14.00;99.90;;;;;;5014005;28;20125;-63
2023/05/25 07:35:23;;;;;;;7.20;2.53;;;14.00;99.90;;;;;;5013790;28;20474;-62
2023/05/25 07:38:05;;;;;;;8.63;3.05;;;14.10;99.90;;;;;;5013521;28;20057;-63
2023/05/25 07:40:31;;;;;;;6.78;2.53;;;14.20;99.90;;;;;;5013763;28;20072;-62
2023/05/25 07:42:56;;;;;;;6.05;2.65;;;14.30;99.90;;;;;;5013892;28;20038;-62
2023/05/25 07:45:22;;;;;;;6.60;2.38;;;14.30;99.90;;;;;;5013032;28;20212;-63
2023/05/25 07:47:48;;;;;;;7.97;2.85;;;14.20;99.90;;;;;;5013913;28;20180;-63
2023/05/25 07:50:14;;;;;;;5.10;2.20;;;14.20;99.90;;;;;;5013824;28;20372;-62
2023/05/25 07:52:40;;;;;;;9.70;2.47;;;14.40;99.90;;;;;;5013769;28;20096;-62
2023/05/25 07:55:07;;;;;;;10.52;2.58;;;14.50;99.90;;;;;;5013786;28;20052;-63
2023/05/25 07:57:33;;;;;;;5.43;2.50;;;14.80;99.90;;;;;;5012576;28;20050;-62
2023/05/25 07:59:59;;;;;;;5.43;2.20;;;14.80;99.90;;;;;;5012542;28;20508;-63
2023/05/25 08:02:25;;;;;;;8.13;2.88;;;14.80;99.90;;;;;;5014129;28;20046;-63
2023/05/25 08:04:51;;;;;;;8.20;2.50;;;14.70;99.90;;;;;;5013603;28;20054;-62
2023/05/25 08:07:18;;;;;;;6.57;2.75;;;14.70;99.90;;;;;;5013993;28;20116;-62
2023/05/25 08:09:44;;;;;;;6.20;2.30;;;14.70;99.90;;;;;;5013643;28;20089;-62
2023/05/25 08:12:10;;;;;;;5.97;1.98;;;14.70;99.90;;;;;;5014102;28;20085;-62
2023/05/25 08:14:35;;;;;;;9.10;2.55;;;14.70;99.90;;;;;;5014145;28;20116;-62
2023/05/25 08:17:01;;;;;;;8.63;3.10;;;14.70;99.90;;;;;;5013549;28;20490;-62
2023/05/25 08:19:30;;;;;;;8.68;2.67;;;14.70;99.90;;;;;;5013564;28;20130;-64
2023/05/25 08:21:55;;;;;;;8.70;2.50;;;14.80;99.90;;;;;;5012527;28;20053;-63
2023/05/25 08:24:21;;;;;;;8.70;2.63;;;14.80;99.90;;;;;;5012906;28;20387;-62
2023/05/25 08:26:47;;;;;;;9.35;2.92;;;14.80;99.90;;;;;;5013536;28;20045;-62
2023/05/25 08:29:13;;;;;;;13.32;3.20;;;14.80;99.90;;;;;;5013296;28;20046;-62
2023/05/25 08:31:41;;;;;;;9.90;3.38;;;14.80;99.90;;;;;;5013230;28;20406;-62
2023/05/25 08:34:07;;;;;;;6.80;2.53;;;14.80;99.90;;;;;;5013522;28;20501;-62
2023/05/25 08:36:34;;;;;;;10.20;3.17;;;14.80;99.90;;;;;;5013412;28;20109;-62
2023/05/25 08:39:01;;;;;;;13.35;3.55;;;14.70;99.90;;;;;;5013334;28;20054;-62
2023/05/25 08:41:28;;;;;;;11.40;3.40;;;14.70;99.90;;;;;;5013917;28;20088;-62
2023/05/25 08:43:54;;;;;;;8.70;3.10;;;14.70;99.90;;;;;;5013489;28;20112;-62
2023/05/25 08:46:38;;;;;;;7.47;2.40;;;14.70;99.90;;;;;;5012899;28;20504;-62
2023/05/25 08:49:12;;;;;;;10.18;3.00;;;14.60;99.90;;;;;;5013839;28;20049;-62
2023/05/25 08:51:42;;;;;;;9.15;2.95;;;14.50;99.90;;;;;;5013759;28;20045;-62
2023/05/25 08:54:09;;;;;;;8.32;2.60;;;14.50;99.90;;;;;;5016448;28;20073;-62
2023/05/25 08:56:51;;;;;;;7.32;2.88;;;14.50;99.90;;;;;;5017627;28;20042;-63
2023/05/25 08:59:25;;;;;;;9.82;3.20;;;14.50;99.90;;;;;;5017253;28;20071;-63
2023/05/25 09:01:57;;;;;;;8.95;2.72;;;14.60;99.90;;;;;;5016616;28;20128;-62
2023/05/25 09:04:23;;;;;;;9.25;2.78;;;14.60;99.90;;;;;;5016305;28;20049;-63
2023/05/25 09:06:49;;;;;;;8.45;2.85;;;14.70;99.90;;;;;;5016848;28;20037;-63
2023/05/25 09:09:16;;;;;;;10.25;2.85;;;14.70;99.90;;;;;;5016529;28;20057;-63
2023/05/25 09:11:43;;;;;;;10.48;2.40;;;14.80;99.90;;;;;;4999005;28;20145;-65
2023/05/25 09:14:10;;;;;;;7.43;2.42;;;14.90;99.90;;;;;;5016521;28;20042;-63
2023/05/25 09:16:39;;;;;;;9.95;3.00;;;15.00;99.90;;;;;;5016471;28;20491;-63
2023/05/25 09:19:05;;;;;;;11.55;2.63;;;15.30;99.90;;;;;;5016406;28;20049;-66
2023/05/25 09:21:30;;;;;;;11.52;3.15;;;15.50;99.90;;;;;;5015454;28;20042;-62
2023/05/25 09:23:58;;;;;;;11.40;3.30;;;15.50;99.90;;;;;;5016051;28;20046;-63
2023/05/25 09:26:25;;;;;;;8.32;3.00;;;15.40;99.90;;;;;;5016348;28;20088;-62
2023/05/25 09:28:51;;;;;;;9.73;2.75;;;15.30;99.90;;;;;;5016774;28;20443;-63
2023/05/25 09:31:17;;;;;;;8.23;2.85;;;15.50;99.90;;;;;;5016906;28;20081;-63
2023/05/25 09:33:44;;;;;;;10.07;3.13;;;16.10;99.90;;;;;;5015907;28;20073;-63
2023/05/25 09:36:14;;;;;;;8.98;3.13;;;16.70;99.90;;;;;;5014683;28;20468;-62
2023/05/25 09:38:40;;;;;;;9.48;2.97;;;17.20;99.90;;;;;;5015982;28;20073;-62
2023/05/25 09:41:05;;;;;;;9.25;2.70;;;17.50;99.90;;;;;;5016165;28;20050;-62
2023/05/25 09:43:32;;;;;;;8.65;2.63;;;17.80;99.90;;;;;;5015910;28;20042;-62
2023/05/25 09:45:58;;;;;;;11.50;3.22;;;18.00;99.90;;;;;;5015997;28;20052;-61
2023/05/25 09:48:24;;;;;;;7.70;2.90;;;18.00;99.90;;;;;;5014652;28;20124;-61
2023/05/25 09:50:50;;;;;;;11.75;2.95;;;18.00;99.90;;;;;;5015983;28;20050;-62
2023/05/25 09:53:16;;;;;;;11.50;2.75;;;17.80;99.90;;;;;;5016368;28;20050;-62
2023/05/25 09:55:41;;;;;;;10.48;2.95;;;17.60;99.90;;;;;;5016103;28;20076;-62
2023/05/25 09:58:07;;;;;;;10.10;2.90;;;17.60;99.90;;;;;;5016567;28;20054;-61
2023/05/25 10:00:33;;;;;;;10.68;2.90;;;17.60;99.90;;;;;;5015754;28;20050;-62
2023/05/25 10:02:59;;;;;;;11.00;2.70;;;17.60;99.90;;;;;;5015375;28;20053;-61
2023/05/25 10:05:25;;;;;;;11.45;2.83;;;17.60;99.90;;;;;;5016146;28;20049;-62
2023/05/25 10:07:53;;;;;;;13.15;3.30;;;17.50;99.90;;;;;;5015548;28;20478;-61
2023/05/25 10:10:19;;;;;;;9.68;2.78;;;17.60;99.90;;;;;;5015062;28;20387;-62
2023/05/25 10:12:48;;;;;;;10.32;2.60;;;17.90;99.90;;;;;;5015398;28;20046;-62
2023/05/25 10:15:16;;;;;;;10.30;2.85;;;18.10;99.90;;;;;;5015389;28;20463;-62
2023/05/25 10:17:56;;;;;;;11.32;2.75;;;18.00;99.90;;;;;;5015348;28;20046;-62
2023/05/25 10:20:23;;;;;;;10.43;3.35;;;17.80;99.90;;;;;;5015307;28;20042;-62
2023/05/25 10:23:11;;;;;;;9.98;2.97;;;17.60;99.90;;;;;;5015266;28;20141;-62
2023/05/25 10:25:42;;;;;;;10.48;2.83;;;17.50;99.90;;;;;;5014655;28;20057;-62
2023/05/25 10:28:28;;;;;;;8.10;3.10;;;17.60;99.90;;;;;;5015619;28;20146;-61
2023/05/25 10:30:56;;;;;;;8.85;2.97;;;17.60;99.90;;;;;;5015150;28;20092;-62
2023/05/25 10:33:23;;;;;;;9.60;2.80;;;17.60;99.90;;;;;;5014229;28;20052;-63
2023/05/25 10:35:49;;;;;;;12.73;2.95;;;17.80;99.90;;;;;;5015054;28;20407;-63
2023/05/25 10:38:15;;;;;;;7.57;3.03;;;17.80;99.90;;;;;;5013684;28;20070;-63
2023/05/25 10:40:47;;;;;;;11.85;3.00;;;17.80;99.90;;;;;;5013701;28;20053;-63
2023/05/25 10:43:14;;;;;;;9.38;2.80;;;17.80;99.90;;;;;;5014864;28;20474;-63
2023/05/25 10:45:41;;;;;;;8.07;2.60;;;17.60;99.90;;;;;;5013594;28;20132;-63
2023/05/25 10:48:06;;;;;;;9.77;2.80;;;17.50;99.90;;;;;;5014719;28;20042;-62
2023/05/25 10:50:36;;;;;;;9.73;2.78;;;17.60;99.90;;;;;;5013867;28;20049;-61
2023/05/25 10:53:07;;;;;;;9.15;3.10;;;17.90;99.90;;;;;;5014757;28;20046;-61
2023/05/25 10:55:51;;;;;;;10.00;2.72;;;18.10;99.90;;;;;;5014625;28;20049;-62
2023/05/25 10:58:25;;;;;;;9.57;2.78;;;18.20;99.90;;;;;;5014670;28;20399;-62
2023/05/25 11:01:08;;;;;;;11.05;2.65;;;18.30;99.90;;;;;;5014813;28;20479;-62
2023/05/25 11:03:42;;;;;;;9.05;3.08;;;18.60;99.90;;;;;;5014519;28;20073;-62
2023/05/25 11:06:09;;;;;;;11.18;2.90;;;18.70;99.90;;;;;;5014537;28;20050;-62
2023/05/25 11:09:02;;;;;;;9.63;3.00;;;18.50;99.90;;;;;;5014449;28;20050;-62
2023/05/25 11:11:46;;;;;;;10.23;2.80;;;18.30;99.90;;;;;;5014883;28;20101;-62
2023/05/25 11:14:28;;;;;;;9.32;3.10;;;18.50;99.90;;;;;;5014019;28;20487;-62
2023/05/25 11:17:09;;;;;;;8.57;2.67;;;18.80;99.90;;;;;;5014380;28;20050;-63
2023/05/25 11:19:49;;;;;;;10.27;3.00;;;19.10;99.90;;;;;;5013077;28;20057;-63
2023/05/25 11:22:19;;;;;;;7.93;2.50;;;19.30;99.90;;;;;;5014504;28;20049;-63
2023/05/25 11:24:46;;;;;;;8.60;2.60;;;19.10;99.90;;;;;;5014311;28;20474;-63
2023/05/25 11:27:12;;;;;;;9.82;3.10;;;19.00;99.90;;;;;;5014184;28;20189;-63
2023/05/25 11:29:38;;;;;;;6.85;2.70;;;19.10;99.90;;;;;;5014691;28;20526;-63
2023/05/25 11:32:12;;;;;;;10.15;2.83;;;19.40;99.90;;;;;;5013144;28;20443;-63
2023/05/25 11:34:37;;;;;;;7.22;2.85;;;19.90;99.90;;;;;;5014260;28;20475;-63
2023/05/25 11:37:03;;;;;;;11.27;2.72;;;20.30;99.90;;;;;;5013950;28;20068;-63
2023/05/25 11:39:30;;;;;;;10.07;2.92;;;20.40;99.90;;;;;;5014713;28;20570;-63
2023/05/25 11:42:03;;;;;;;10.05;2.75;;;20.50;99.90;;;;;;5014647;28;20046;-63
2023/05/25 11:44:32;;;;;;;9.02;2.90;;;20.20;99.90;;;;;;5013883;28;20056;-63
2023/05/25 11:47:13;;;;;;;10.55;3.10;;;19.90;99.90;;;;;;5012853;28;20068;-63
2023/05/25 11:49:46;;;;;;;9.10;3.17;;;19.90;99.90;;;;;;5014703;28;20454;-63
2023/05/25 11:52:19;;;;;;;9.55;3.45;;;20.10;99.90;;;;;;5014012;28;20108;-62
2023/05/25 11:54:45;;;;;;;12.55;3.10;;;20.30;99.90;;;;;;5014434;28;20100;-62
2023/05/25 11:57:16;;;;;;;10.15;2.90;;;20.70;99.90;;;;;;5013798;28;20182;-62
2023/05/25 11:59:49;;;;;;;6.78;2.45;;;20.80;99.90;;;;;;5012714;28;20376;-62
2023/05/25 12:02:15;;;;;;;12.15;3.53;;;20.60;99.90;;;;;;5012633;28;20132;-62
2023/05/25 12:04:54;;;;;;;11.30;3.50;;;20.20;99.90;;;;;;5012502;28;20084;-62
2023/05/25 12:07:20;;;;;;;7.80;2.70;;;20.30;99.90;;;;;;4996087;28;20085;-62
2023/05/25 12:09:46;;;;;;;8.32;2.92;;;20.40;99.90;;;;;;5013481;28;20104;-62
2023/05/25 12:12:12;;;;;;;9.05;3.08;;;20.30;99.90;;;;;;5012375;28;20108;-62
2023/05/25 12:14:50;;;;;;;12.30;3.53;;;20.20;99.90;;;;;;5013902;28;20042;-63
2023/05/25 12:17:18;;;;;;;9.88;3.00;;;20.00;99.90;;;;;;5013058;28;20507;-62
2023/05/25 12:19:44;;;;;;;8.90;2.80;;;20.00;99.90;;;;;;5012433;28;20050;-62
2023/05/25 12:22:12;;;;;;;9.55;3.25;;;20.10;99.90;;;;;;5013508;28;20092;-62
2023/05/25 12:24:40;;;;;;;10.07;3.15;;;20.30;99.90;;;;;;5013448;28;20034;-62
2023/05/25 12:27:16;;;;;;;7.93;2.88;;;20.50;99.90;;;;;;5015496;28;20442;-63
2023/05/25 12:29:46;;;;;;;9.15;3.13;;;20.50;99.90;;;;;;5017426;28;20478;-62
2023/05/25 12:32:12;;;;;;;6.53;2.50;;;20.50;99.90;;;;;;5017184;28;20049;-63
2023/05/25 12:34:37;;;;;;;8.30;3.03;;;20.70;99.90;;;;;;5017047;28;20053;-63
2023/05/25 12:37:03;;;;;;;10.52;3.50;;;20.90;99.90;;;;;;5017746;28;20489;-63
2023/05/25 12:39:29;;;;;;;8.85;3.08;;;21.10;99.90;;;;;;5015949;28;20089;-64
2023/05/25 12:42:00;;;;;;;7.30;3.13;;;21.30;99.90;;;;;;5016957;28;20096;-64
2023/05/25 12:44:32;;;;;;;8.38;3.00;;;21.70;99.90;;;;;;5016733;28;20430;-64
2023/05/25 12:47:14;;;;;;;11.05;4.32;;;21.90;99.90;;;;;;5017865;28;20050;-65
2023/05/25 12:49:42;;;;;;;9.38;3.70;;;21.90;99.90;;;;;;5017473;28;20046;-64
2023/05/25 12:52:09;;;;;;;8.80;3.28;;;21.90;99.90;;;;;;5016903;28;20077;-64
2023/05/25 12:54:36;;;;;;;8.85;3.15;;;21.90;99.90;;;;;;5016881;28;20072;-64